createdAt,value
2017-10-17T00:01:47.874Z,5.33
2017-10-17T00:04:16.132Z,6.50
2017-10-17T00:06:43.649Z,6.40
2017-10-17T00:09:11.187Z,6.40
2017-10-17T00:11:38.721Z,5.97
2017-10-17T00:14:06.217Z,5.93
2017-10-17T00:16:33.733Z,5.50
2017-10-17T00:19:01.233Z,5.97
2017-10-17T00:21:28.748Z,5.50
2017-10-17T00:23:56.249Z,5.93
2017-10-17T00:26:23.767Z,5.63
2017-10-17T00:28:51.273Z,5.23
2017-10-17T00:31:18.810Z,5.75
2017-10-17T00:33:47.081Z,6.43
2017-10-17T00:36:15.373Z,5.70
2017-10-17T00:38:43.620Z,5.80
2017-10-17T00:41:11.142Z,6.20
2017-10-17T00:43:38.659Z,6.33
2017-10-17T00:46:09.570Z,5.90
2017-10-17T00:48:37.065Z,5.70
2017-10-17T00:51:21.030Z,5.70
2017-10-17T00:53:48.541Z,5.33
2017-10-17T00:56:16.110Z,6.63
2017-10-17T00:58:43.654Z,5.30
2017-10-17T01:01:11.186Z,5.82
2017-10-17T01:03:38.706Z,5.37
2017-10-17T01:06:07.041Z,5.90
2017-10-17T01:08:34.537Z,5.13
2017-10-17T01:11:02.832Z,6.47
2017-10-17T01:13:30.333Z,5.97
2017-10-17T01:15:57.852Z,6.17
2017-10-17T01:18:26.085Z,6.27
2017-10-17T01:20:55.538Z,5.73
2017-10-17T01:23:41.497Z,6.17
2017-10-17T01:26:10.529Z,5.30
2017-10-17T01:28:38.030Z,5.60
2017-10-17T01:31:05.553Z,5.90
2017-10-17T01:33:33.047Z,6.27
2017-10-17T01:36:00.564Z,6.60
2017-10-17T01:38:33.421Z,6.40
2017-10-17T01:41:01.718Z,6.00
2017-10-17T01:43:29.227Z,5.80
2017-10-17T01:45:57.590Z,6.00
2017-10-17T01:48:25.897Z,6.13
2017-10-17T01:51:04.249Z,5.20
2017-10-17T01:53:38.178Z,6.00
2017-10-17T01:56:05.705Z,5.70
2017-10-17T01:58:36.678Z,5.57
2017-10-17T02:01:11.661Z,6.00
2017-10-17T02:03:39.156Z,5.30
2017-10-17T02:06:06.679Z,6.20
2017-10-17T02:08:34.190Z,5.70
2017-10-17T02:11:02.572Z,5.80
2017-10-17T02:13:30.068Z,6.40
2017-10-17T02:15:57.636Z,6.13
2017-10-17T02:18:27.056Z,6.10
2017-10-17T02:20:57.882Z,5.27
2017-10-17T02:23:35.309Z,6.17
2017-10-17T02:28:59.489Z,6.03
2017-10-17T02:31:28.582Z,6.60
2017-10-17T02:34:05.470Z,6.80
2017-10-17T02:36:33.001Z,6.23
2017-10-17T02:39:00.503Z,6.63
2017-10-17T02:41:28.026Z,6.63
2017-10-17T02:43:57.247Z,6.87
2017-10-17T02:46:25.546Z,6.60
2017-10-17T02:48:58.681Z,6.03
2017-10-17T02:51:26.224Z,6.10
2017-10-17T02:53:53.720Z,7.40
2017-10-17T02:56:21.237Z,6.50
2017-10-17T02:58:48.741Z,6.83
2017-10-17T03:01:22.844Z,7.00
2017-10-17T03:03:50.352Z,6.60
2017-10-17T03:06:17.890Z,7.43
2017-10-17T03:08:46.163Z,7.17
2017-10-17T03:11:15.960Z,8.25
2017-10-17T03:13:45.154Z,7.15
2017-10-17T03:16:12.690Z,7.50
2017-10-17T03:18:40.199Z,8.10
2017-10-17T03:24:16.067Z,7.50
2017-10-17T03:26:44.366Z,8.18
2017-10-17T03:29:11.864Z,7.60
2017-10-17T03:31:39.400Z,6.93
2017-10-17T03:34:10.646Z,8.10
2017-10-17T03:36:43.621Z,7.65
2017-10-17T03:39:11.121Z,8.47
2017-10-17T03:41:38.689Z,6.90
2017-10-17T03:44:10.601Z,7.50
2017-10-17T03:46:39.922Z,7.77
2017-10-17T03:49:09.942Z,7.63
2017-10-17T03:51:37.460Z,7.95
2017-10-17T03:54:11.170Z,8.17
2017-10-17T03:56:39.497Z,7.20
2017-10-17T03:59:09.709Z,7.57
2017-10-17T04:01:37.221Z,7.50
2017-10-17T04:04:08.308Z,7.60
2017-10-17T04:06:51.607Z,7.60
2017-10-17T04:09:19.876Z,7.85
2017-10-17T04:11:48.164Z,7.55
2017-10-17T04:14:38.076Z,8.50
2017-10-17T04:17:21.529Z,7.65
2017-10-17T04:19:53.603Z,8.05
2017-10-17T04:22:26.797Z,8.00
2017-10-17T04:25:04.813Z,7.17
2017-10-17T04:27:37.876Z,6.90
2017-10-17T04:30:16.077Z,7.50
2017-10-17T04:32:50.172Z,7.37
2017-10-17T04:35:18.399Z,8.07
2017-10-17T04:37:47.551Z,6.70
2017-10-17T04:40:25.901Z,7.50
2017-10-17T04:46:16.304Z,6.15
2017-10-17T04:48:56.253Z,6.60
2017-10-17T04:54:36.999Z,6.60
2017-10-17T04:57:06.293Z,6.20
2017-10-17T05:02:40.075Z,6.32
2017-10-17T05:05:19.170Z,5.63
2017-10-17T05:08:15.049Z,5.50
2017-10-17T05:10:43.280Z,6.77
2017-10-17T05:13:48.393Z,5.60
2017-10-17T05:16:20.288Z,6.37
2017-10-17T05:21:49.720Z,6.47
2017-10-17T05:24:36.016Z,6.37
2017-10-17T05:27:31.832Z,5.93
2017-10-17T05:30:12.749Z,6.70
2017-10-17T05:32:40.265Z,6.13
2017-10-17T05:35:07.786Z,6.63
2017-10-17T05:37:35.315Z,5.97
2017-10-17T05:40:18.639Z,5.93
2017-10-17T05:42:46.203Z,5.43
2017-10-17T05:45:14.620Z,5.55
2017-10-17T05:47:45.007Z,5.23
2017-10-17T05:50:15.176Z,6.00
2017-10-17T05:52:45.409Z,5.43
2017-10-17T05:55:13.688Z,5.43
2017-10-17T05:57:41.980Z,5.97
2017-10-17T06:00:09.486Z,6.47
2017-10-17T06:02:37.012Z,5.00
2017-10-17T06:05:04.743Z,4.97
2017-10-17T06:07:32.368Z,5.40
2017-10-17T06:10:00.300Z,5.00
2017-10-17T06:12:27.869Z,5.30
2017-10-17T06:14:55.509Z,5.93
2017-10-17T06:17:23.029Z,6.80
2017-10-17T06:19:50.544Z,6.20
2017-10-17T06:22:18.079Z,5.40
2017-10-17T06:24:46.364Z,6.32
2017-10-17T06:27:14.660Z,5.65
2017-10-17T06:29:42.165Z,6.05
2017-10-17T06:32:09.693Z,5.40
2017-10-17T06:34:37.210Z,6.30
2017-10-17T06:37:05.508Z,5.60
2017-10-17T06:39:33.018Z,5.67
2017-10-17T06:42:00.568Z,5.20
2017-10-17T06:44:28.076Z,6.00
2017-10-17T06:46:56.365Z,6.77
2017-10-17T06:49:23.877Z,7.87
2017-10-17T06:51:51.417Z,6.90
2017-10-17T06:54:18.925Z,8.30
2017-10-17T06:56:47.222Z,7.40
2017-10-17T06:59:14.727Z,5.57
2017-10-17T07:01:42.261Z,6.73
2017-10-17T07:04:09.764Z,5.63
2017-10-17T07:06:37.304Z,5.43
2017-10-17T07:09:04.797Z,5.20
2017-10-17T07:11:33.094Z,5.53
2017-10-17T07:14:01.373Z,4.90
2017-10-17T07:16:29.661Z,5.27
2017-10-17T07:18:57.170Z,4.80
2017-10-17T07:21:24.703Z,5.10
2017-10-17T07:23:52.217Z,4.93
2017-10-17T07:26:20.512Z,5.83
2017-10-17T07:28:48.018Z,4.90
2017-10-17T07:31:15.537Z,5.37
2017-10-17T07:33:43.042Z,5.20
2017-10-17T07:36:10.561Z,5.20
2017-10-17T07:38:38.066Z,4.53
2017-10-17T07:41:05.588Z,5.80
2017-10-17T07:43:33.086Z,5.53
2017-10-17T07:46:00.617Z,5.07
2017-10-17T07:48:28.140Z,5.00
2017-10-17T07:50:55.664Z,5.03
2017-10-17T07:53:23.169Z,5.50
2017-10-17T07:55:50.694Z,5.10
2017-10-17T07:58:18.193Z,5.20
2017-10-17T08:00:45.732Z,5.30
2017-10-17T08:03:14.024Z,5.80
2017-10-17T08:05:41.540Z,5.20
2017-10-17T08:08:09.283Z,4.90
2017-10-17T08:10:36.797Z,6.47
2017-10-17T08:13:05.079Z,6.00
2017-10-17T08:15:32.580Z,5.60
2017-10-17T08:18:00.098Z,4.97
2017-10-17T08:20:27.605Z,5.47
2017-10-17T08:22:55.134Z,5.70
2017-10-17T08:25:22.642Z,5.60
2017-10-17T08:27:50.156Z,4.77
2017-10-17T08:30:17.655Z,5.80
2017-10-17T08:32:45.178Z,6.90
2017-10-17T08:35:12.686Z,6.60
2017-10-17T08:37:40.204Z,6.00
2017-10-17T08:40:07.717Z,5.80
2017-10-17T08:42:36.012Z,5.40
2017-10-17T08:45:03.514Z,6.53
2017-10-17T08:47:31.033Z,5.97
2017-10-17T08:49:58.541Z,5.10
2017-10-17T08:52:26.074Z,6.33
2017-10-17T08:54:53.585Z,5.37
2017-10-17T08:57:21.112Z,5.97
2017-10-17T08:59:48.622Z,6.40
2017-10-17T09:02:16.914Z,7.30
2017-10-17T09:04:44.420Z,7.03
2017-10-17T09:07:11.955Z,6.13
2017-10-17T09:09:39.475Z,6.37
2017-10-17T09:12:07.768Z,6.20
2017-10-17T09:14:35.276Z,6.83
2017-10-17T09:17:02.798Z,7.10
2017-10-17T09:19:30.296Z,6.70
2017-10-17T09:21:57.814Z,6.73
2017-10-17T09:24:25.319Z,6.73
2017-10-17T09:26:52.850Z,6.87
2017-10-17T09:29:20.349Z,6.00
2017-10-17T09:31:47.872Z,6.23
2017-10-17T09:34:15.378Z,6.30
2017-10-17T09:36:43.675Z,7.40
2017-10-17T09:39:11.937Z,7.13
2017-10-17T09:41:40.224Z,6.90
2017-10-17T09:44:08.494Z,7.30
2017-10-17T09:46:36.776Z,6.53
2017-10-17T09:49:05.042Z,7.50
2017-10-17T09:51:32.558Z,7.77
2017-10-17T09:54:00.068Z,7.40
2017-10-17T09:56:28.362Z,6.80
2017-10-17T09:58:55.871Z,7.40
2017-10-17T10:01:23.398Z,7.77
2017-10-17T10:03:50.910Z,8.67
2017-10-17T10:06:18.438Z,7.57
2017-10-17T10:08:45.930Z,7.90
2017-10-17T10:11:13.456Z,6.90
2017-10-17T10:13:40.957Z,8.03
2017-10-17T10:16:09.244Z,7.50
2017-10-17T10:18:37.521Z,8.13
2017-10-17T10:21:05.060Z,7.30
2017-10-17T10:23:36.130Z,7.80
2017-10-17T10:26:04.423Z,7.70
2017-10-17T10:28:31.922Z,8.37
2017-10-17T10:30:59.462Z,8.93
2017-10-17T10:33:27.734Z,7.00
2017-10-17T10:35:55.264Z,7.70
2017-10-17T10:38:23.537Z,8.37
2017-10-17T10:40:51.832Z,7.90
2017-10-17T10:43:19.341Z,8.40
2017-10-17T10:45:46.861Z,8.33
2017-10-17T10:48:14.368Z,7.87
2017-10-17T10:50:41.897Z,8.20
2017-10-17T10:53:09.401Z,8.53
2017-10-17T10:55:37.694Z,8.97
2017-10-17T10:58:05.205Z,8.80
2017-10-17T11:00:32.728Z,8.33
2017-10-17T11:03:01.154Z,7.67
2017-10-17T11:05:28.676Z,8.30
2017-10-17T11:07:56.179Z,8.37
2017-10-17T11:10:23.709Z,8.03
2017-10-17T11:12:51.205Z,8.20
2017-10-17T11:15:18.729Z,8.83
2017-10-17T11:17:46.238Z,7.80
2017-10-17T11:20:14.534Z,8.10
2017-10-17T11:22:42.036Z,8.47
2017-10-17T11:25:09.560Z,8.67
2017-10-17T11:27:37.065Z,7.87
2017-10-17T11:30:04.592Z,7.70
2017-10-17T11:32:32.096Z,7.47
2017-10-17T11:34:59.626Z,7.30
2017-10-17T11:37:27.141Z,7.67
2017-10-17T11:39:55.612Z,8.23
2017-10-17T11:42:35.600Z,8.47
2017-10-17T11:45:03.124Z,7.27
2017-10-17T11:47:31.393Z,6.93
2017-10-17T11:49:58.918Z,7.53
2017-10-17T11:52:26.417Z,7.50
2017-10-17T11:54:54.713Z,7.63
2017-10-17T11:57:22.226Z,7.43
2017-10-17T11:59:49.759Z,7.97
2017-10-17T12:02:17.252Z,7.10
2017-10-17T12:04:44.782Z,6.30
2017-10-17T12:07:12.289Z,6.87
2017-10-17T12:09:39.814Z,7.00
2017-10-17T12:12:07.314Z,6.67
2017-10-17T12:14:35.610Z,7.60
2017-10-17T12:17:03.131Z,6.87
2017-10-17T12:19:30.658Z,6.27
2017-10-17T12:21:58.167Z,7.70
2017-10-17T12:24:26.464Z,7.50
2017-10-17T12:26:54.724Z,6.73
2017-10-17T12:29:23.056Z,7.83
2017-10-17T12:31:50.566Z,7.20
2017-10-17T12:34:18.855Z,7.20
2017-10-17T12:36:47.133Z,7.80
2017-10-17T12:39:15.415Z,7.90
2017-10-17T12:41:42.914Z,7.60
2017-10-17T12:44:10.434Z,8.17
2017-10-17T12:46:39.868Z,7.60
2017-10-17T12:49:07.467Z,7.17
2017-10-17T12:51:34.993Z,6.90
2017-10-17T12:54:04.450Z,7.50
2017-10-17T12:56:32.723Z,6.67
2017-10-17T12:59:01.002Z,7.80
2017-10-17T13:01:29.289Z,7.70
2017-10-17T13:03:56.802Z,8.10
2017-10-17T13:06:24.333Z,8.30
2017-10-17T13:08:51.848Z,8.57
2017-10-17T13:11:19.366Z,8.10
2017-10-17T13:13:50.042Z,8.20
2017-10-17T13:16:17.586Z,8.87
2017-10-17T13:18:45.139Z,8.20
2017-10-17T13:21:12.674Z,8.00
2017-10-17T13:23:40.186Z,8.80
2017-10-17T13:26:07.786Z,8.80
2017-10-17T13:28:35.286Z,7.70
2017-10-17T13:31:02.818Z,7.40
2017-10-17T13:33:30.331Z,7.23
2017-10-17T13:35:58.629Z,8.13
2017-10-17T13:38:26.138Z,7.17
2017-10-17T13:40:53.790Z,7.37
2017-10-17T13:43:31.677Z,7.43
2017-10-17T13:45:59.199Z,8.17
2017-10-17T13:48:28.165Z,7.97
2017-10-17T13:50:55.698Z,8.60
2017-10-17T13:53:33.597Z,9.03
2017-10-17T13:56:01.120Z,9.27
2017-10-17T13:58:29.398Z,9.10
2017-10-17T14:00:56.930Z,8.70
2017-10-17T14:03:24.452Z,8.47
2017-10-17T14:05:51.981Z,9.00
2017-10-17T14:08:19.490Z,9.03
2017-10-17T14:10:47.013Z,8.97
2017-10-17T14:13:14.530Z,7.50
2017-10-17T14:15:42.062Z,8.00
2017-10-17T14:18:09.585Z,8.17
2017-10-17T14:20:37.121Z,8.00
2017-10-17T14:23:05.405Z,8.20
2017-10-17T14:25:33.693Z,8.10
2017-10-17T14:28:01.193Z,8.40
2017-10-17T14:30:28.718Z,9.00
2017-10-17T14:32:56.232Z,8.30
2017-10-17T14:35:23.749Z,8.60
2017-10-17T14:37:51.258Z,7.83
2017-10-17T14:40:18.793Z,8.43
2017-10-17T14:42:53.617Z,7.93
2017-10-17T14:45:23.071Z,8.50
2017-10-17T14:47:51.355Z,7.70
2017-10-17T14:50:19.642Z,8.00
2017-10-17T14:52:47.912Z,8.87
2017-10-17T14:55:16.196Z,7.70
2017-10-17T14:57:44.462Z,7.33
2017-10-17T15:00:12.749Z,8.33
2017-10-17T15:02:40.261Z,8.20
2017-10-17T15:05:07.851Z,7.60
2017-10-17T15:07:36.155Z,7.43
2017-10-17T15:10:03.752Z,8.60
2017-10-17T15:12:31.267Z,8.73
2017-10-17T15:14:58.797Z,9.10
2017-10-17T15:17:26.324Z,8.03
2017-10-17T15:19:53.920Z,7.93
2017-10-17T15:22:22.701Z,7.40
2017-10-17T15:24:51.029Z,7.03
2017-10-17T15:27:18.534Z,7.67
2017-10-17T15:29:46.064Z,8.13
2017-10-17T15:32:13.565Z,8.83
2017-10-17T15:34:41.099Z,8.30
2017-10-17T15:37:08.609Z,8.60
2017-10-17T15:39:36.901Z,8.40
2017-10-17T15:42:05.346Z,8.77
2017-10-17T15:44:32.872Z,8.20
2017-10-17T15:47:00.378Z,8.57
2017-10-17T15:49:28.676Z,9.20
2017-10-17T15:51:56.185Z,8.43
2017-10-17T15:54:23.777Z,8.00
2017-10-17T15:56:52.063Z,8.03
2017-10-17T15:59:20.362Z,9.60
2017-10-17T16:01:47.862Z,8.40
2017-10-17T16:04:15.388Z,8.93
2017-10-17T16:06:42.889Z,8.33
2017-10-17T16:09:10.413Z,9.17
2017-10-17T16:11:37.913Z,8.93
2017-10-17T16:14:05.445Z,8.60
2017-10-17T16:16:32.951Z,8.20
2017-10-17T16:19:01.253Z,8.43
2017-10-17T16:21:28.762Z,8.87
2017-10-17T16:23:56.285Z,7.70
2017-10-17T16:26:23.838Z,7.60
2017-10-17T16:28:51.385Z,8.73
2017-10-17T16:31:18.904Z,9.67
2017-10-17T16:33:46.423Z,8.27
2017-10-17T16:36:13.929Z,8.13
2017-10-17T16:38:41.453Z,8.90
2017-10-17T16:41:09.720Z,8.80
2017-10-17T16:43:37.242Z,8.73
2017-10-17T16:46:05.507Z,9.37
2017-10-17T16:48:33.026Z,9.40
2017-10-17T16:51:00.534Z,9.07
2017-10-17T16:53:28.820Z,8.90
2017-10-17T16:55:57.089Z,8.87
2017-10-17T16:58:25.380Z,9.60
2017-10-17T17:00:52.890Z,8.23
2017-10-17T17:03:20.414Z,7.73
2017-10-17T17:05:47.917Z,10.30
2017-10-17T17:08:15.446Z,10.10
2017-10-17T17:10:42.958Z,9.60
2017-10-17T17:13:10.481Z,9.10
2017-10-17T17:15:37.990Z,11.57
2017-10-17T17:18:06.285Z,12.00
2017-10-17T17:20:33.785Z,13.70
2017-10-17T17:23:01.310Z,12.90
2017-10-17T17:25:28.814Z,12.50
2017-10-17T17:27:56.346Z,11.83
2017-10-17T17:30:23.850Z,15.00
2017-10-17T17:32:51.383Z,15.90
2017-10-17T17:35:18.893Z,14.23
2017-10-17T17:37:46.426Z,13.50
2017-10-17T17:40:13.933Z,11.30
2017-10-17T17:42:41.457Z,10.50
2017-10-17T17:45:09.737Z,10.97
2017-10-17T17:47:38.034Z,9.83
2017-10-17T17:50:05.542Z,9.90
2017-10-17T17:52:33.066Z,10.10
2017-10-17T17:55:00.589Z,10.27
2017-10-17T17:57:28.878Z,9.77
2017-10-17T17:59:57.149Z,10.00
2017-10-17T18:02:25.462Z,10.50
2017-10-17T18:04:55.976Z,10.00
2017-10-17T18:07:23.510Z,11.10
2017-10-17T18:09:51.014Z,10.60
2017-10-17T18:12:18.551Z,10.83
2017-10-17T18:14:46.820Z,11.30
2017-10-17T18:17:15.129Z,10.60
2017-10-17T18:19:42.629Z,11.77
2017-10-17T18:22:10.157Z,14.60
2017-10-17T18:24:37.667Z,14.70
2017-10-17T18:27:05.960Z,16.93
2017-10-17T18:29:33.505Z,16.87
2017-10-17T18:32:01.055Z,17.00
2017-10-17T18:34:28.610Z,13.77
2017-10-17T18:36:56.133Z,13.60
2017-10-17T18:39:23.699Z,11.77
2017-10-17T18:41:51.233Z,10.90
2017-10-17T18:44:18.751Z,11.50
2017-10-17T18:46:46.281Z,11.13
2017-10-17T18:49:13.789Z,11.48
2017-10-17T18:51:42.098Z,9.73
2017-10-17T18:54:09.605Z,10.50
2017-10-17T18:56:37.132Z,13.80
2017-10-17T18:59:04.650Z,16.27
2017-10-17T19:01:33.033Z,10.63
2017-10-17T19:04:07.640Z,10.87
2017-10-17T19:06:35.189Z,10.43
2017-10-17T19:09:02.709Z,10.93
2017-10-17T19:11:30.270Z,10.90
2017-10-17T19:13:58.696Z,10.20
2017-10-17T19:16:26.221Z,9.50
2017-10-17T19:18:53.727Z,10.40
2017-10-17T19:21:22.166Z,9.47
2017-10-17T19:23:49.670Z,9.83
2017-10-17T19:26:17.945Z,9.27
2017-10-17T19:28:46.237Z,9.45
2017-10-17T19:31:13.786Z,11.00
2017-10-17T19:33:42.080Z,9.67
2017-10-17T19:36:09.613Z,10.67
2017-10-17T19:38:37.141Z,9.07
2017-10-17T19:41:04.644Z,10.67
2017-10-17T19:43:32.949Z,11.43
2017-10-17T19:46:00.465Z,10.27
2017-10-17T19:48:28.012Z,10.17
2017-10-17T19:50:55.512Z,10.73
2017-10-17T19:53:23.049Z,10.60
2017-10-17T19:55:50.556Z,11.60
2017-10-17T19:58:18.073Z,9.80
2017-10-17T20:00:47.085Z,10.03
2017-10-17T20:03:14.647Z,10.90
2017-10-17T20:05:42.920Z,10.20
2017-10-17T20:08:11.222Z,11.80
2017-10-17T20:10:38.728Z,10.93
2017-10-17T20:13:06.313Z,11.97
2017-10-17T20:15:34.626Z,10.43
2017-10-17T20:18:02.162Z,11.27
2017-10-17T20:20:30.428Z,11.20
2017-10-17T20:22:59.731Z,12.60
2017-10-17T20:25:28.002Z,11.50
2017-10-17T20:27:56.309Z,11.57
2017-10-17T20:30:23.830Z,12.03
2017-10-17T20:32:51.371Z,11.47
2017-10-17T20:35:18.901Z,12.37
2017-10-17T20:37:46.433Z,11.00
2017-10-17T20:40:13.991Z,10.80
2017-10-17T20:42:41.600Z,10.70
2017-10-17T20:45:09.109Z,10.33
2017-10-17T20:47:38.578Z,11.50
2017-10-17T20:50:06.090Z,10.07
2017-10-17T20:52:35.366Z,11.70
2017-10-17T20:55:03.649Z,11.97
2017-10-17T20:57:31.941Z,11.20
2017-10-17T20:59:59.449Z,10.40
2017-10-17T21:02:27.391Z,11.77
2017-10-17T21:04:55.739Z,12.20
2017-10-17T21:07:23.282Z,10.73
2017-10-17T21:09:51.049Z,10.70
2017-10-17T21:12:18.638Z,12.10
2017-10-17T21:14:46.165Z,11.43
2017-10-17T21:17:14.219Z,11.37
2017-10-17T21:19:41.753Z,11.27
2017-10-17T21:22:09.277Z,10.70
2017-10-17T21:24:36.801Z,11.27
2017-10-17T21:27:04.467Z,10.90
2017-10-17T21:29:31.975Z,10.73
2017-10-17T21:31:59.512Z,10.20
2017-10-17T21:34:27.868Z,11.37
2017-10-17T21:36:55.504Z,12.20
2017-10-17T21:39:23.029Z,10.80
2017-10-17T21:41:50.701Z,10.63
2017-10-17T21:44:18.205Z,10.83
2017-10-17T21:46:45.733Z,10.37
2017-10-17T21:49:13.281Z,12.17
2017-10-17T21:51:40.818Z,10.83
2017-10-17T21:54:09.098Z,10.60
2017-10-17T21:56:36.628Z,10.15
2017-10-17T21:59:04.129Z,12.17
2017-10-17T22:01:31.654Z,11.20
2017-10-17T22:03:59.172Z,11.70
2017-10-17T22:06:26.692Z,10.33
2017-10-17T22:08:54.213Z,11.37
2017-10-17T22:11:21.750Z,12.27
2017-10-17T22:13:49.253Z,12.10
2017-10-17T22:16:17.570Z,11.37
2017-10-17T22:18:45.091Z,11.70
2017-10-17T22:21:12.849Z,11.20
2017-10-17T22:23:40.363Z,10.93
2017-10-17T22:26:07.890Z,11.37
2017-10-17T22:28:36.161Z,10.63
2017-10-17T22:31:04.455Z,10.40
2017-10-17T22:33:32.729Z,11.57
2017-10-17T22:36:01.025Z,11.83
2017-10-17T22:38:28.543Z,11.33
2017-10-17T22:40:56.045Z,12.40
2017-10-17T22:43:23.577Z,12.00
2017-10-17T22:45:51.852Z,13.10
2017-10-17T22:48:20.159Z,12.40
2017-10-17T22:50:47.669Z,12.65
2017-10-17T22:53:15.188Z,12.07
2017-10-17T22:55:42.693Z,13.20
2017-10-17T22:58:10.221Z,12.60
2017-10-17T23:00:37.742Z,13.47
2017-10-17T23:03:06.031Z,13.37
2017-10-17T23:05:33.608Z,13.27
2017-10-17T23:08:01.143Z,12.87
2017-10-17T23:10:28.648Z,12.60
2017-10-17T23:12:56.164Z,13.20
2017-10-17T23:15:23.686Z,13.90
2017-10-17T23:18:03.770Z,12.77
2017-10-17T23:20:37.614Z,13.17
2017-10-17T23:23:05.154Z,12.50
2017-10-17T23:25:32.679Z,13.00
2017-10-17T23:28:01.002Z,10.93
2017-10-17T23:30:28.514Z,11.50
2017-10-17T23:32:56.053Z,11.20
2017-10-17T23:35:23.572Z,12.55
2017-10-17T23:37:51.105Z,11.27
2017-10-17T23:40:19.386Z,11.93
2017-10-17T23:42:47.685Z,12.20
2017-10-17T23:45:15.194Z,13.33
2017-10-17T23:47:42.730Z,10.70
2017-10-17T23:50:10.241Z,11.00
2017-10-17T23:52:38.541Z,9.90
2017-10-17T23:55:06.057Z,10.27
2017-10-17T23:57:33.581Z,9.10
